Time;durP1;ratioP1;P1;durP2;ratioP2;P2;SDS_P1;SDS_P2;PMS_P1;PMS_P2;Temp;Humidity;BMP_temperature;BMP_pressure;BME280_temperature;BME280_humidity;BME280_pressure;Samples;Min_cycle;Max_cycle;Signal;HPM_P1;HPM_P2
2023/04/28 00:02:09;;;;;;;5.53;3.97;;;;;;;;;;5042950;28;20033;-58
2023/04/28 00:04:35;;;;;;;5.10;3.67;;;;;;;;;;5034836;28;20045;-58
2023/04/28 00:07:02;;;;;;;5.25;3.55;;;;;;;;;;5043720;28;20048;-57
2023/04/28 00:09:28;;;;;;;5.88;3.05;;;;;;;;;;5039746;28;20045;-57
2023/04/28 00:11:54;;;;;;;5.82;3.55;;;;;;;;;;5045935;28;20052;-57
2023/04/28 00:14:20;;;;;;;7.28;4.07;;;;;;;;;;5039806;28;20050;-57
2023/04/28 00:16:46;;;;;;;4.72;3.33;;;;;;;;;;5048976;28;20051;-57
2023/04/28 00:19:12;;;;;;;7.15;3.60;;;;;;;;;;5042033;28;20095;-57
2023/04/28 00:21:39;;;;;;;5.05;3.10;;;;;;;;;;5044298;28;20060;-59
2023/04/28 00:24:05;;;;;;;7.63;3.40;;;;;;;;;;5047631;28;20034;-59
2023/04/28 00:26:32;;;;;;;4.97;3.33;;;;;;;;;;5036825;28;20396;-57
2023/04/28 00:28:58;;;;;;;7.28;3.33;;;;;;;;;;5036141;28;20044;-57
2023/04/28 00:31:24;;;;;;;6.45;3.70;;;;;;;;;;5042971;28;20033;-58
2023/04/28 00:33:50;;;;;;;5.60;3.40;;;;;;;;;;5049059;28;20049;-58
2023/04/28 00:36:16;;;;;;;5.78;3.30;;;;;;;;;;5043966;28;20051;-59
2023/04/28 00:38:42;;;;;;;5.95;3.60;;;;;;;;;;5042620;28;20033;-59
2023/04/28 00:41:10;;;;;;;5.22;2.85;;;;;;;;;;5041471;28;20506;-58
2023/04/28 00:43:44;;;;;;;5.95;3.00;;;;;;;;;;5038059;28;20261;-58
2023/04/28 00:46:23;;;;;;;5.47;3.13;;;;;;;;;;5041872;28;20510;-59
2023/04/28 00:48:50;;;;;;;6.70;3.25;;;;;;;;;;5042006;28;20033;-59
2023/04/28 00:51:16;;;;;;;5.93;3.20;;;;;;;;;;5038134;28;20041;-58
2023/04/28 00:53:43;;;;;;;4.18;3.17;;;;;;;;;;5041081;28;20056;-59
2023/04/28 00:56:10;;;;;;;3.58;2.85;;;;;;;;;;5043377;28;20044;-58
2023/04/28 00:58:36;;;;;;;7.57;3.08;;;;;;;;;;5036877;28;20037;-58
2023/04/28 01:01:06;;;;;;;8.02;3.38;;;;;;;;;;5039987;28;20060;-57
2023/04/28 01:03:34;;;;;;;3.75;2.75;;;;;;;;;;5040214;28;20053;-57
2023/04/28 01:06:02;;;;;;;3.93;3.10;;;;;;;;;;5046549;28;20044;-58
2023/04/28 01:08:31;;;;;;;4.38;3.30;;;;;;;;;;5045792;28;20045;-58
2023/04/28 01:10:57;;;;;;;6.22;3.63;;;;;;;;;;5036368;28;20029;-58
2023/04/28 01:13:43;;;;;;;4.72;3.60;;;;;;;;;;5041864;28;20075;-57
2023/04/28 01:16:10;;;;;;;4.53;3.15;;;;;;;;;;5042039;28;20029;-58
2023/04/28 01:18:38;;;;;;;6.88;3.78;;;;;;;;;;5025110;28;20752;-58
2023/04/28 01:21:04;;;;;;;6.85;3.60;;;;;;;;;;5037429;28;20033;-58
2023/04/28 01:23:30;;;;;;;6.18;3.50;;;;;;;;;;5041487;28;20060;-58
2023/04/28 01:25:57;;;;;;;6.38;3.10;;;;;;;;;;5040719;28;20037;-58
2023/04/28 01:28:23;;;;;;;5.60;3.20;;;;;;;;;;5037970;28;20037;-59
2023/04/28 01:30:50;;;;;;;4.53;3.20;;;;;;;;;;5040039;28;20055;-59
2023/04/28 01:33:16;;;;;;;5.03;3.10;;;;;;;;;;5041291;28;20044;-58
2023/04/28 01:35:42;;;;;;;6.13;3.20;;;;;;;;;;5044632;28;20049;-58
2023/04/28 01:38:09;;;;;;;6.38;3.10;;;;;;;;;;5043827;28;20048;-58
2023/04/28 01:40:35;;;;;;;5.03;3.08;;;;;;;;;;5043297;28;20033;-58
2023/04/28 01:43:02;;;;;;;4.88;3.42;;;;;;;;;;5039291;28;20034;-58
2023/04/28 01:45:29;;;;;;;5.50;3.30;;;;;;;;;;5042357;28;20089;-58
2023/04/28 01:47:55;;;;;;;5.60;3.28;;;;;;;;;;5040146;28;20052;-58
2023/04/28 01:50:21;;;;;;;4.57;3.08;;;;;;;;;;5041980;28;20028;-59
2023/04/28 01:52:48;;;;;;;3.88;3.00;;;;;;;;;;5041614;28;20419;-58
2023/04/28 01:55:20;;;;;;;4.22;2.92;;;;;;;;;;5037109;28;20044;-58
2023/04/28 01:57:53;;;;;;;4.80;2.95;;;;;;;;;;5034854;28;20033;-58
2023/04/28 02:00:19;;;;;;;5.70;3.28;;;;;;;;;;5040577;28;20033;-58
2023/04/28 02:02:50;;;;;;;3.40;2.75;;;;;;;;;;5043064;28;20045;-58
2023/04/28 02:05:16;;;;;;;5.07;2.80;;;;;;;;;;5046292;28;20419;-58
2023/04/28 02:07:42;;;;;;;3.80;2.83;;;;;;;;;;5037304;28;20033;-58
2023/04/28 02:10:09;;;;;;;5.13;3.10;;;;;;;;;;5037724;28;20029;-58
2023/04/28 02:12:35;;;;;;;6.32;3.00;;;;;;;;;;5047202;28;20032;-58
2023/04/28 02:15:01;;;;;;;3.38;2.70;;;;;;;;;;5036661;28;20041;-59
2023/04/28 02:17:30;;;;;;;4.97;3.03;;;;;;;;;;5034298;28;20048;-58
2023/04/28 02:19:57;;;;;;;4.68;2.55;;;;;;;;;;5041533;28;20056;-59
2023/04/28 02:22:23;;;;;;;5.60;2.80;;;;;;;;;;5047727;28;20036;-58
2023/04/28 02:24:50;;;;;;;4.68;2.75;;;;;;;;;;5040176;28;20049;-58
2023/04/28 02:27:16;;;;;;;5.63;2.90;;;;;;;;;;5033736;28;20041;-58
2023/04/28 02:29:42;;;;;;;3.22;2.75;;;;;;;;;;5042766;28;20033;-59
2023/04/28 02:32:09;;;;;;;3.70;2.50;;;;;;;;;;5037739;28;20045;-58
2023/04/28 02:34:35;;;;;;;4.05;2.80;;;;;;;;;;5041534;28;20037;-58
2023/04/28 02:37:01;;;;;;;3.35;2.75;;;;;;;;;;5035799;28;20041;-58
2023/04/28 02:39:29;;;;;;;3.50;2.28;;;;;;;;;;5039221;28;20044;-58
2023/04/28 02:41:56;;;;;;;4.17;2.73;;;;;;;;;;5039939;28;20050;-58
2023/04/28 02:44:23;;;;;;;3.90;2.70;;;;;;;;;;5042492;28;20044;-58
2023/04/28 02:46:49;;;;;;;4.25;2.80;;;;;;;;;;5036950;28;20033;-58
2023/04/28 02:49:15;;;;;;;4.75;2.95;;;;;;;;;;5041992;28;20036;-58
2023/04/28 02:51:42;;;;;;;5.05;2.70;;;;;;;;;;5034774;28;20045;-58
2023/04/28 02:54:08;;;;;;;4.70;3.05;;;;;;;;;;5039819;28;20055;-58
2023/04/28 02:56:35;;;;;;;4.45;2.92;;;;;;;;;;5040959;28;20060;-58
2023/04/28 02:59:03;;;;;;;6.90;3.15;;;;;;;;;;5035805;28;20033;-58
2023/04/28 03:01:29;;;;;;;5.15;3.13;;;;;;;;;;5040843;28;20056;-58
2023/04/28 03:03:55;;;;;;;4.68;2.88;;;;;;;;;;5042365;28;20037;-59
2023/04/28 03:06:21;;;;;;;3.65;3.10;;;;;;;;;;5043320;28;20059;-58
2023/04/28 03:08:48;;;;;;;5.32;2.70;;;;;;;;;;5035058;28;20033;-58
2023/04/28 03:11:14;;;;;;;4.25;2.85;;;;;;;;;;5037899;28;20041;-58
2023/04/28 03:13:41;;;;;;;4.60;3.03;;;;;;;;;;5039631;28;20799;-58
2023/04/28 03:16:07;;;;;;;3.28;2.50;;;;;;;;;;5041573;28;20056;-58
2023/04/28 03:18:33;;;;;;;2.88;2.60;;;;;;;;;;5039148;28;20037;-58
2023/04/28 03:21:00;;;;;;;4.13;3.08;;;;;;;;;;5035042;28;20041;-58
2023/04/28 03:23:27;;;;;;;4.70;2.83;;;;;;;;;;5033284;28;20025;-58
2023/04/28 03:25:53;;;;;;;9.05;3.10;;;;;;;;;;5038898;28;20040;-59
2023/04/28 03:28:20;;;;;;;4.30;2.85;;;;;;;;;;5037287;28;20414;-58
2023/04/28 03:30:47;;;;;;;3.58;2.70;;;;;;;;;;5039640;28;20037;-58
2023/04/28 03:33:13;;;;;;;5.30;3.17;;;;;;;;;;5046481;28;20037;-58
2023/04/28 03:35:40;;;;;;;4.20;2.75;;;;;;;;;;5038621;28;20043;-58
2023/04/28 03:38:06;;;;;;;3.67;2.63;;;;;;;;;;5039377;28;20049;-58
2023/04/28 03:40:32;;;;;;;7.00;2.92;;;;;;;;;;5034358;28;20029;-59
2023/04/28 03:43:25;;;;;;;7.35;2.95;;;;;;;;;;5045663;28;20048;-58
2023/04/28 03:46:14;;;;;;;4.25;2.78;;;;;;;;;;5044832;28;20040;-58
2023/04/28 03:48:41;;;;;;;4.70;2.80;;;;;;;;;;5046956;28;20036;-58
2023/04/28 03:51:07;;;;;;;6.53;3.30;;;;;;;;;;5044719;28;20033;-58
2023/04/28 03:53:33;;;;;;;5.50;2.97;;;;;;;;;;5040584;28;20494;-58
2023/04/28 03:55:59;;;;;;;4.53;2.90;;;;;;;;;;5042758;28;20067;-58
2023/04/28 03:58:26;;;;;;;8.60;4.72;;;;;;;;;;5040396;28;20041;-59
2023/04/28 04:00:53;;;;;;;7.43;3.97;;;;;;;;;;5042017;28;20036;-58
2023/04/28 04:03:21;;;;;;;8.20;3.97;;;;;;;;;;5048203;28;20037;-58
2023/04/28 04:05:48;;;;;;;5.68;3.33;;;;;;;;;;5043994;28;20430;-58
2023/04/28 04:08:15;;;;;;;6.00;3.22;;;;;;;;;;5040977;28;20407;-58
2023/04/28 04:10:41;;;;;;;3.60;3.30;;;;;;;;;;5042743;28;20040;-58
2023/04/28 04:13:07;;;;;;;5.05;3.63;;;;;;;;;;5046725;28;20041;-58
2023/04/28 04:15:33;;;;;;;8.88;3.92;;;;;;;;;;5040324;28;20040;-58
2023/04/28 04:18:00;;;;;;;5.53;3.72;;;;;;;;;;5036998;28;20045;-58
2023/04/28 04:20:32;;;;;;;4.85;3.33;;;;;;;;;;5045950;28;20055;-58
2023/04/28 04:22:58;;;;;;;4.45;3.10;;;;;;;;;;5045365;28;20029;-59
2023/04/28 04:25:24;;;;;;;8.25;4.13;;;;;;;;;;5043135;28;20033;-58
2023/04/28 04:27:51;;;;;;;8.13;3.60;;;;;;;;;;5042818;28;20037;-59
2023/04/28 04:30:17;;;;;;;6.75;3.15;;;;;;;;;;5040962;28;20029;-58
2023/04/28 04:32:43;;;;;;;6.57;3.35;;;;;;;;;;5042135;28;20033;-59
2023/04/28 04:35:10;;;;;;;5.03;3.40;;;;;;;;;;5039594;28;20029;-59
2023/04/28 04:37:36;;;;;;;7.15;3.58;;;;;;;;;;5037201;28;20037;-59
2023/04/28 04:40:03;;;;;;;7.20;3.90;;;;;;;;;;5038574;28;20041;-59
2023/04/28 04:42:35;;;;;;;7.40;4.43;;;;;;;;;;5040133;28;20410;-59
2023/04/28 04:45:14;;;;;;;;;;;;;;;;;;5039816;28;20037;-59
2023/04/28 04:47:41;;;;;;;6.95;4.20;;;;;;;;;;5040168;28;19917;-59
2023/04/28 04:50:08;;;;;;;6.25;4.50;;;;;;;;;;5039035;28;20041;-59
2023/04/28 04:52:34;;;;;;;5.57;4.32;;;;;;;;;;5040724;28;20395;-60
2023/04/28 04:55:00;;;;;;;6.95;4.43;;;;;;;;;;5044898;28;20041;-59
2023/04/28 04:57:26;;;;;;;8.57;4.70;;;;;;;;;;5037508;28;20037;-59
2023/04/28 05:00:10;;;;;;;7.05;4.63;;;;;;;;;;5037646;28;20041;-59
2023/04/28 05:02:36;;;;;;;7.53;4.50;;;;;;;;;;5036447;28;20049;-60
2023/04/28 05:05:05;;;;;;;6.22;4.63;;;;;;;;;;5042771;28;20040;-60
2023/04/28 05:07:32;;;;;;;7.60;4.95;;;;;;;;;;5042737;28;20055;-59
2023/04/28 05:09:58;;;;;;;9.63;5.18;;;;;;;;;;5042087;28;20466;-59
2023/04/28 05:12:25;;;;;;;8.02;5.00;;;;;;;;;;5043012;28;20040;-59
2023/04/28 05:14:51;;;;;;;7.57;4.95;;;;;;;;;;5046764;28;20435;-61
2023/04/28 05:17:20;;;;;;;7.60;5.28;;;;;;;;;;5043736;28;20025;-59
2023/04/28 05:19:46;;;;;;;9.85;5.18;;;;;;;;;;5045447;28;20397;-60
2023/04/28 05:22:13;;;;;;;8.85;4.93;;;;;;;;;;5040960;28;20047;-60
2023/04/28 05:24:39;;;;;;;9.90;4.75;;;;;;;;;;5043670;28;20072;-59
2023/04/28 05:27:05;;;;;;;7.80;5.13;;;;;;;;;;5018220;28;20040;-58
2023/04/28 05:29:33;;;;;;;9.88;5.00;;;;;;;;;;5043357;28;20044;-60
2023/04/28 05:31:59;;;;;;;10.18;5.60;;;;;;;;;;5039828;28;20060;-60
2023/04/28 05:34:26;;;;;;;10.27;6.00;;;;;;;;;;5046390;28;20041;-60
2023/04/28 05:36:52;;;;;;;7.95;5.15;;;;;;;;;;5040078;28;20044;-60
2023/04/28 05:39:21;;;;;;;11.63;6.20;;;;;;;;;;5042629;28;20032;-61
2023/04/28 05:41:47;;;;;;;11.15;5.70;;;;;;;;;;5036767;28;20044;-60
2023/04/28 05:44:14;;;;;;;12.15;6.40;;;;;;;;;;5036056;28;20021;-60
2023/04/28 05:46:40;;;;;;;12.82;6.78;;;;;;;;;;5038248;28;20057;-60
2023/04/28 05:49:08;;;;;;;13.43;6.75;;;;;;;;;;5043945;28;20053;-60
2023/04/28 05:51:37;;;;;;;;;;;;;;;;;;5037540;28;20052;-60
2023/04/28 05:54:03;;;;;;;13.85;7.07;;;;;;;;;;5034316;28;19917;-60
2023/04/28 05:56:32;;;;;;;17.65;8.02;;;;;;;;;;5041852;28;20435;-60
2023/04/28 05:59:03;;;;;;;15.38;8.10;;;;;;;;;;5042959;28;20044;-60
2023/04/28 06:01:32;;;;;;;12.93;7.37;;;;;;;;;;5037527;28;20048;-60
2023/04/28 06:03:58;;;;;;;14.95;6.95;;;;;;;;;;5034444;28;20565;-60
2023/04/28 06:06:26;;;;;;;14.45;7.30;;;;;;;;;;5023562;28;20036;-60
2023/04/28 06:08:53;;;;;;;13.35;7.35;;;;;;;;;;5040624;28;20040;-63
2023/04/28 06:11:21;;;;;;;22.60;8.43;;;;;;;;;;5043976;28;20037;-60
2023/04/28 06:13:49;;;;;;;13.18;6.57;;;;;;;;;;5038255;28;20501;-60
2023/04/28 06:16:17;;;;;;;12.15;6.05;;;;;;;;;;5045444;28;20486;-60
2023/04/28 06:18:44;;;;;;;13.25;6.63;;;;;;;;;;5037054;28;20040;-60
2023/04/28 06:21:10;;;;;;;9.73;6.10;;;;;;;;;;5039079;28;20048;-60
2023/04/28 06:23:39;;;;;;;7.18;5.30;;;;;;;;;;5043756;28;20479;-60
2023/04/28 06:26:05;;;;;;;8.17;5.43;;;;;;;;;;5039246;28;20507;-60
2023/04/28 06:28:31;;;;;;;6.55;4.78;;;;;;;;;;5045298;28;20426;-60
2023/04/28 06:30:58;;;;;;;6.43;4.57;;;;;;;;;;5039195;28;20515;-60
2023/04/28 06:33:24;;;;;;;5.50;4.20;;;;;;;;;;5037381;28;20036;-59
2023/04/28 06:35:51;;;;;;;7.13;4.25;;;;;;;;;;5035364;28;20056;-60
2023/04/28 06:38:18;;;;;;;5.95;4.65;;;;;;;;;;5039850;28;20041;-59
2023/04/28 06:40:45;;;;;;;6.97;4.70;;;;;;;;;;5036420;28;20048;-59
2023/04/28 06:43:11;;;;;;;6.70;4.55;;;;;;;;;;5044332;28;20049;-60
2023/04/28 06:45:49;;;;;;;6.18;3.92;;;;;;;;;;5041648;28;20676;-59
2023/04/28 06:48:16;;;;;;;4.32;3.85;;;;;;;;;;5034776;28;20037;-59
2023/04/28 06:50:42;;;;;;;5.10;3.58;;;;;;;;;;5041191;28;20656;-59
2023/04/28 06:53:08;;;;;;;6.25;4.57;;;;;;;;;;5045206;28;20037;-60
2023/04/28 06:55:34;;;;;;;4.75;3.42;;;;;;;;;;5044028;28;20560;-59
2023/04/28 06:58:00;;;;;;;3.90;3.50;;;;;;;;;;5039206;28;20047;-59
2023/04/28 07:00:27;;;;;;;4.72;3.72;;;;;;;;;;5041714;28;20048;-59
2023/04/28 07:02:53;;;;;;;5.20;3.63;;;;;;;;;;5039846;28;20049;-60
2023/04/28 07:05:19;;;;;;;4.70;3.58;;;;;;;;;;5044068;28;20044;-60
2023/04/28 07:07:46;;;;;;;3.55;3.25;;;;;;;;;;5039933;28;20037;-59
2023/04/28 07:10:14;;;;;;;4.93;3.08;;;;;;;;;;5041896;28;20033;-59
2023/04/28 07:12:40;;;;;;;4.80;3.10;;;;;;;;;;5045255;28;20043;-59
2023/04/28 07:15:07;;;;;;;4.45;2.83;;;;;;;;;;5042880;28;20495;-59
2023/04/28 07:17:33;;;;;;;3.03;2.72;;;;;;;;;;5036593;28;20052;-60
2023/04/28 07:19:59;;;;;;;3.28;2.97;;;;;;;;;;5037908;28;20033;-60
2023/04/28 07:22:25;;;;;;;3.13;2.83;;;;;;;;;;5041007;28;20064;-60
2023/04/28 07:24:51;;;;;;;4.22;3.30;;;;;;;;;;5037569;28;20523;-60
2023/04/28 07:27:18;;;;;;;5.35;3.35;;;;;;;;;;5037009;28;20045;-59
2023/04/28 07:29:44;;;;;;;5.45;3.75;;;;;;;;;;5040306;28;20041;-60
2023/04/28 07:32:10;;;;;;;6.15;4.18;;;;;;;;;;5039515;28;20049;-60
2023/04/28 07:34:36;;;;;;;3.90;2.90;;;;;;;;;;5033187;28;20056;-60
2023/04/28 07:37:03;;;;;;;3.30;2.83;;;;;;;;;;5035265;28;20033;-60
2023/04/28 07:39:33;;;;;;;3.25;2.90;;;;;;;;;;5031101;28;20044;-59
2023/04/28 07:42:01;;;;;;;3.22;2.65;;;;;;;;;;5033456;28;20032;-60
2023/04/28 07:44:28;;;;;;;2.95;2.65;;;;;;;;;;5030717;28;20455;-59
2023/04/28 07:46:55;;;;;;;3.03;2.47;;;;;;;;;;5040676;28;20037;-59
2023/04/28 07:49:21;;;;;;;2.50;2.30;;;;;;;;;;5036542;28;20033;-60
2023/04/28 07:51:48;;;;;;;4.57;2.60;;;;;;;;;;5033862;28;20036;-60
2023/04/28 07:54:14;;;;;;;4.15;3.17;;;;;;;;;;5043485;28;20033;-60
2023/04/28 07:56:41;;;;;;;2.78;2.53;;;;;;;;;;5046095;28;20394;-60
2023/04/28 07:59:07;;;;;;;3.97;2.50;;;;;;;;;;5041365;28;20044;-60
2023/04/28 08:01:33;;;;;;;2.28;2.08;;;;;;;;;;5044450;28;20394;-60
2023/04/28 08:03:59;;;;;;;3.13;2.33;;;;;;;;;;5045442;28;20035;-61
2023/04/28 08:06:26;;;;;;;4.57;2.33;;;;;;;;;;5041947;28;20033;-60
2023/04/28 08:08:52;;;;;;;2.83;2.63;;;;;;;;;;5033002;28;20030;-60
2023/04/28 08:11:18;;;;;;;2.25;2.00;;;;;;;;;;5032267;28;20056;-60
2023/04/28 08:13:44;;;;;;;2.30;2.10;;;;;;;;;;5040009;28;20046;-60
2023/04/28 08:16:10;;;;;;;3.78;2.38;;;;;;;;;;5042299;28;20064;-60
2023/04/28 08:18:38;;;;;;;2.42;2.22;;;;;;;;;;5041995;28;20051;-60
2023/04/28 08:21:04;;;;;;;4.78;3.28;;;;;;;;;;5036738;28;20041;-60
2023/04/28 08:23:31;;;;;;;2.90;2.60;;;;;;;;;;5045367;28;20044;-60
2023/04/28 08:25:57;;;;;;;3.30;3.00;;;;;;;;;;5037680;28;20052;-60
2023/04/28 08:28:23;;;;;;;2.72;2.45;;;;;;;;;;5037203;28;20045;-61
2023/04/28 08:30:50;;;;;;;2.55;2.35;;;;;;;;;;5034739;28;20050;-60
2023/04/28 08:33:16;;;;;;;3.72;2.40;;;;;;;;;;5041198;28;20048;-61
2023/04/28 08:35:42;;;;;;;2.33;2.10;;;;;;;;;;5038019;28;20041;-60
2023/04/28 08:38:12;;;;;;;2.58;2.38;;;;;;;;;;5037238;28;20049;-60
2023/04/28 08:40:41;;;;;;;2.80;2.60;;;;;;;;;;5036290;28;20037;-60
2023/04/28 08:43:09;;;;;;;3.00;2.70;;;;;;;;;;5040937;28;20028;-60
2023/04/28 08:45:41;;;;;;;3.47;2.15;;;;;;;;;;5037092;28;20056;-59
2023/04/28 08:48:21;;;;;;;2.45;2.25;;;;;;;;;;5040908;28;20036;-60
2023/04/28 08:50:50;;;;;;;3.35;2.45;;;;;;;;;;5035315;28;20040;-59
2023/04/28 08:53:24;;;;;;;3.38;2.55;;;;;;;;;;5040339;28;20384;-60
2023/04/28 08:55:56;;;;;;;2.83;2.50;;;;;;;;;;5039222;28;20039;-59
2023/04/28 08:58:23;;;;;;;2.78;2.58;;;;;;;;;;5041191;28;20049;-59
2023/04/28 09:00:53;;;;;;;2.40;2.20;;;;;;;;;;5044596;28;20029;-60
2023/04/28 09:03:20;;;;;;;3.55;2.53;;;;;;;;;;5040057;28;20041;-60
2023/04/28 09:05:46;;;;;;;3.38;2.40;;;;;;;;;;5037833;28;20038;-60
2023/04/28 09:08:13;;;;;;;2.60;1.92;;;;;;;;;;5039413;28;20737;-60
2023/04/28 09:10:39;;;;;;;2.47;2.28;;;;;;;;;;5040747;28;20475;-60
2023/04/28 09:13:05;;;;;;;2.33;2.13;;;;;;;;;;5041186;28;20033;-60
2023/04/28 09:15:41;;;;;;;2.38;2.17;;;;;;;;;;5038566;28;20045;-60
2023/04/28 09:18:13;;;;;;;2.78;2.55;;;;;;;;;;5034912;28;20037;-60
2023/04/28 09:20:39;;;;;;;4.03;2.35;;;;;;;;;;5037277;28;20045;-60
2023/04/28 09:23:16;;;;;;;2.75;2.08;;;;;;;;;;5039262;28;20033;-60
2023/04/28 09:26:06;;;;;;;4.18;2.30;;;;;;;;;;5033143;28;20050;-60
2023/04/28 09:28:34;;;;;;;2.58;2.38;;;;;;;;;;5038808;28;20420;-62
2023/04/28 09:31:01;;;;;;;2.85;2.17;;;;;;;;;;5045804;28;20037;-59
2023/04/28 09:33:27;;;;;;;2.80;2.35;;;;;;;;;;5042053;28;20663;-59
2023/04/28 09:35:53;;;;;;;3.90;2.40;;;;;;;;;;5040131;28;20044;-59
2023/04/28 09:38:20;;;;;;;3.08;2.00;;;;;;;;;;5039928;28;20028;-59
2023/04/28 09:41:00;;;;;;;3.40;2.35;;;;;;;;;;5039497;28;20502;-59
2023/04/28 09:43:30;;;;;;;2.55;2.00;;;;;;;;;;5042294;28;20033;-59
2023/04/28 09:45:59;;;;;;;3.33;2.10;;;;;;;;;;5037601;28;20056;-58
2023/04/28 09:48:29;;;;;;;3.13;1.98;;;;;;;;;;5041773;28;20049;-58
2023/04/28 09:50:57;;;;;;;6.05;3.33;;;;;;;;;;5045054;28;20036;-59
2023/04/28 09:53:25;;;;;;;2.38;2.17;;;;;;;;;;5046589;28;20029;-59
2023/04/28 09:55:53;;;;;;;3.13;2.03;;;;;;;;;;5043471;28;20046;-59
2023/04/28 09:58:21;;;;;;;2.65;2.45;;;;;;;;;;5047303;28;20037;-56
2023/04/28 10:00:58;;;;;;;3.05;2.75;;;;;;;;;;5043525;28;20451;-58
2023/04/28 10:03:29;;;;;;;1.70;1.60;;;;;;;;;;5035602;28;20021;-58
2023/04/28 10:05:58;;;;;;;1.95;1.70;;;;;;;;;;5042581;28;20045;-59
2023/04/28 10:08:26;;;;;;;1.73;1.63;;;;;;;;;;5043801;28;20521;-59
2023/04/28 10:10:53;;;;;;;5.60;1.70;;;;;;;;;;5043127;28;20073;-59
2023/04/28 10:13:21;;;;;;;4.85;2.10;;;;;;;;;;5041380;28;20036;-59
2023/04/28 10:15:54;;;;;;;2.85;1.73;;;;;;;;;;5041417;28;20411;-59
2023/04/28 10:18:22;;;;;;;1.92;1.80;;;;;;;;;;5039585;28;20068;-60
2023/04/28 10:20:54;;;;;;;1.73;1.55;;;;;;;;;;5041659;28;20036;-59
2023/04/28 10:23:30;;;;;;;1.75;1.65;;;;;;;;;;5037599;28;20564;-58
2023/04/28 10:25:58;;;;;;;2.10;1.88;;;;;;;;;;5040495;28;20052;-59
2023/04/28 10:28:25;;;;;;;3.35;2.20;;;;;;;;;;5043426;28;20045;-59
2023/04/28 10:31:11;;;;;;;4.30;3.13;;;;;;;;;;5039536;28;20041;-59
2023/04/28 10:33:39;;;;;;;3.15;2.30;;;;;;;;;;5039438;28;20513;-59
2023/04/28 10:36:06;;;;;;;4.93;2.28;;;;;;;;;;5039378;28;20593;-59
2023/04/28 10:38:33;;;;;;;2.45;2.00;;;;;;;;;;5044233;28;20502;-58
2023/04/28 10:41:03;;;;;;;2.95;2.00;;;;;;;;;;5041552;28;20422;-59
2023/04/28 10:43:30;;;;;;;3.50;2.28;;;;;;;;;;5043154;28;20029;-58
2023/04/28 10:46:00;;;;;;;1.70;1.60;;;;;;;;;;5038522;28;20059;-59
2023/04/28 10:48:29;;;;;;;2.10;1.75;;;;;;;;;;5033426;28;20395;-59
2023/04/28 10:51:05;;;;;;;1.73;1.63;;;;;;;;;;5038047;28;20063;-59
2023/04/28 10:53:43;;;;;;;1.40;1.30;;;;;;;;;;5040591;28;20650;-59
2023/04/28 10:56:26;;;;;;;1.33;1.23;;;;;;;;;;5036636;28;20044;-59
2023/04/28 10:58:56;;;;;;;1.60;1.50;;;;;;;;;;5036533;28;20033;-58
2023/04/28 11:01:33;;;;;;;1.33;1.13;;;;;;;;;;5037203;28;20029;-58
2023/04/28 11:06:39;;;;;;;1.50;1.30;;;;;;;;;;5035613;28;20415;-59
2023/04/28 11:09:11;;;;;;;1.27;1.00;;;;;;;;;;5040957;28;20506;-59
2023/04/28 11:11:38;;;;;;;1.35;1.00;;;;;;;;;;5045092;28;20025;-59
2023/04/28 11:14:17;;;;;;;1.13;1.02;;;;;;;;;;5039564;28;20025;-59
2023/04/28 11:17:01;;;;;;;1.60;1.30;;;;;;;;;;5042258;28;20052;-59
2023/04/28 11:19:32;;;;;;;1.67;1.38;;;;;;;;;;5049913;28;20426;-58
2023/04/28 11:22:00;;;;;;;1.33;1.23;;;;;;;;;;5039177;28;20044;-59
2023/04/28 11:24:28;;;;;;;5.32;3.45;;;;;;;;;;5041416;28;20044;-59
2023/04/28 11:26:55;;;;;;;2.10;1.30;;;;;;;;;;5026409;28;20037;-57
2023/04/28 11:29:32;;;;;;;2.65;1.33;;;;;;;;;;5044467;28;20507;-60
2023/04/28 11:31:58;;;;;;;1.52;1.42;;;;;;;;;;5040725;28;20068;-59
2023/04/28 11:34:25;;;;;;;1.50;1.40;;;;;;;;;;5042619;28;20040;-58
2023/04/28 11:36:51;;;;;;;1.10;1.00;;;;;;;;;;5039895;28;20049;-59
2023/04/28 11:39:28;;;;;;;1.17;1.00;;;;;;;;;;5039106;28;20411;-59
2023/04/28 11:41:55;;;;;;;1.05;0.95;;;;;;;;;;5037442;28;20056;-59
2023/04/28 11:44:24;;;;;;;1.45;1.00;;;;;;;;;;5037092;28;20025;-59
2023/04/28 11:47:00;;;;;;;;;;;;;;;;;;5040278;28;20046;-59
2023/04/28 11:49:32;;;;;;;1.10;1.00;;;;;;;;;;5042560;28;19913;-58
2023/04/28 11:52:06;;;;;;;1.45;1.00;;;;;;;;;;5042855;28;20053;-58
2023/04/28 11:54:33;;;;;;;1.23;1.13;;;;;;;;;;5035871;28;20049;-59
2023/04/28 11:57:02;;;;;;;1.50;1.40;;;;;;;;;;5043569;28;20036;-58
2023/04/28 11:59:33;;;;;;;0.90;0.90;;;;;;;;;;5044326;28;20033;-58
2023/04/28 12:02:05;;;;;;;1.35;1.25;;;;;;;;;;5042471;28;20431;-59
2023/04/28 12:04:31;;;;;;;1.83;0.90;;;;;;;;;;5048380;28;20029;-58
2023/04/28 12:07:03;;;;;;;1.13;1.02;;;;;;;;;;5047140;28;20068;-58
2023/04/28 12:09:31;;;;;;;2.70;1.25;;;;;;;;;;5040037;28;20040;-58
2023/04/28 12:12:01;;;;;;;0.85;0.80;;;;;;;;;;5045728;28;20033;-58
2023/04/28 12:14:28;;;;;;;0.80;0.80;;;;;;;;;;5045545;28;20029;-59
2023/04/28 12:16:55;;;;;;;0.90;0.90;;;;;;;;;;5043561;28;20036;-59
2023/04/28 12:19:21;;;;;;;1.55;0.90;;;;;;;;;;5044122;28;20036;-60
2023/04/28 12:21:58;;;;;;;1.92;1.00;;;;;;;;;;5042999;28;20036;-57
2023/04/28 12:24:25;;;;;;;0.90;0.90;;;;;;;;;;5044978;28;20033;-59
2023/04/28 12:26:53;;;;;;;0.90;0.90;;;;;;;;;;5042489;28;20415;-58
2023/04/28 12:29:39;;;;;;;0.80;0.80;;;;;;;;;;5045448;28;20030;-58
2023/04/28 12:32:09;;;;;;;2.95;1.10;;;;;;;;;;5042953;28;20404;-58
2023/04/28 12:34:36;;;;;;;1.45;1.10;;;;;;;;;;5044006;28;20033;-58
2023/04/28 12:37:04;;;;;;;1.00;0.90;;;;;;;;;;5042650;28;20041;-58
2023/04/28 12:39:32;;;;;;;0.88;0.88;;;;;;;;;;5044420;28;20037;-58
2023/04/28 12:41:59;;;;;;;1.13;1.00;;;;;;;;;;5046773;28;20060;-58
2023/04/28 12:44:27;;;;;;;2.40;1.10;;;;;;;;;;5034553;28;20030;-58
2023/04/28 12:46:54;;;;;;;0.98;0.95;;;;;;;;;;5040698;28;20529;-59
2023/04/28 12:49:20;;;;;;;1.85;1.00;;;;;;;;;;5036920;28;20041;-58
2023/04/28 12:51:47;;;;;;;1.10;0.80;;;;;;;;;;5043992;28;20048;-58
2023/04/28 12:54:13;;;;;;;1.02;0.85;;;;;;;;;;5037488;28;20040;-59
2023/04/28 12:56:39;;;;;;;2.33;0.90;;;;;;;;;;5043787;28;20052;-59
2023/04/28 12:59:05;;;;;;;0.70;0.70;;;;;;;;;;5042548;28;20415;-59
2023/04/28 13:01:31;;;;;;;0.98;0.88;;;;;;;;;;5036204;28;20108;-59
2023/04/28 13:03:58;;;;;;;3.72;1.77;;;;;;;;;;5022248;28;20056;-59
2023/04/28 13:06:26;;;;;;;1.45;0.90;;;;;;;;;;5041465;28;20064;-58
2023/04/28 13:08:52;;;;;;;1.38;0.88;;;;;;;;;;5042711;28;20037;-58
2023/04/28 13:11:18;;;;;;;1.67;0.70;;;;;;;;;;5033299;28;20052;-58
2023/04/28 13:13:44;;;;;;;0.80;0.80;;;;;;;;;;5037912;28;21891;-59
2023/04/28 13:16:11;;;;;;;1.15;1.05;;;;;;;;;;5041907;28;20052;-59
2023/04/28 13:18:37;;;;;;;0.80;0.80;;;;;;;;;;5034443;28;20045;-58
2023/04/28 13:21:04;;;;;;;2.40;0.88;;;;;;;;;;5036281;28;20037;-58
2023/04/28 13:23:30;;;;;;;0.90;0.70;;;;;;;;;;5047181;28;20043;-58
2023/04/28 13:25:57;;;;;;;0.82;0.80;;;;;;;;;;5039471;28;20052;-58
2023/04/28 13:28:23;;;;;;;0.70;0.70;;;;;;;;;;5036767;28;20041;-58
2023/04/28 13:30:49;;;;;;;1.48;0.70;;;;;;;;;;5037123;28;20041;-59
2023/04/28 13:33:15;;;;;;;0.52;0.52;;;;;;;;;;5041932;28;20029;-58
2023/04/28 13:35:41;;;;;;;1.00;0.70;;;;;;;;;;5031048;28;20037;-57
2023/04/28 13:38:07;;;;;;;0.85;0.60;;;;;;;;;;5037220;28;20048;-58
2023/04/28 13:40:34;;;;;;;0.35;0.35;;;;;;;;;;5047944;28;20041;-58
2023/04/28 13:43:00;;;;;;;0.95;0.65;;;;;;;;;;5049404;28;20057;-59
2023/04/28 13:45:27;;;;;;;0.75;0.63;;;;;;;;;;5037433;28;20048;-59
2023/04/28 13:47:53;;;;;;;2.03;0.60;;;;;;;;;;5045533;28;20045;-59
2023/04/28 13:50:20;;;;;;;1.73;0.70;;;;;;;;;;5043015;28;20087;-58
2023/04/28 13:52:46;;;;;;;1.50;0.82;;;;;;;;;;5039048;28;20037;-59
2023/04/28 13:55:12;;;;;;;1.98;0.63;;;;;;;;;;5043709;28;20041;-58
2023/04/28 13:57:39;;;;;;;0.75;0.75;;;;;;;;;;5042350;28;20032;-61
2023/04/28 14:00:05;;;;;;;3.25;0.80;;;;;;;;;;5047529;28;20045;-59
2023/04/28 14:02:33;;;;;;;0.80;0.50;;;;;;;;;;5041948;28;20475;-60
2023/04/28 14:05:00;;;;;;;1.20;1.10;;;;;;;;;;5036396;28;20041;-60
2023/04/28 14:07:27;;;;;;;1.48;1.10;;;;;;;;;;5043403;28;20502;-59
2023/04/28 14:09:53;;;;;;;1.00;0.90;;;;;;;;;;5034378;28;20029;-59
2023/04/28 14:12:19;;;;;;;1.77;1.00;;;;;;;;;;5037226;28;20043;-61
2023/04/28 14:14:47;;;;;;;1.92;1.15;;;;;;;;;;5040856;28;20032;-60
2023/04/28 14:17:13;;;;;;;3.53;0.60;;;;;;;;;;5020231;28;20491;-62
2023/04/28 14:19:39;;;;;;;1.08;1.08;;;;;;;;;;5039584;28;20883;-62
2023/04/28 14:22:06;;;;;;;1.38;1.17;;;;;;;;;;5044769;28;20064;-61
2023/04/28 14:24:32;;;;;;;2.20;1.08;;;;;;;;;;5044037;28;20036;-61
2023/04/28 14:26:58;;;;;;;1.50;1.40;;;;;;;;;;5042088;28;20402;-62
2023/04/28 14:29:24;;;;;;;1.52;1.00;;;;;;;;;;5042222;28;20056;-63
2023/04/28 14:31:50;;;;;;;1.15;1.08;;;;;;;;;;5042654;28;20346;-63
2023/04/28 14:34:16;;;;;;;1.00;1.00;;;;;;;;;;5039111;28;20655;-62
2023/04/28 14:36:43;;;;;;;2.15;1.63;;;;;;;;;;5042408;28;20032;-62
2023/04/28 14:39:09;;;;;;;3.97;1.42;;;;;;;;;;5043354;28;20099;-62
2023/04/28 14:41:35;;;;;;;2.30;1.35;;;;;;;;;;5040621;28;20044;-59
2023/04/28 14:44:02;;;;;;;1.58;1.45;;;;;;;;;;5033777;28;20053;-61
2023/04/28 14:46:28;;;;;;;3.50;2.25;;;;;;;;;;5040207;28;20035;-60
2023/04/28 14:48:55;;;;;;;5.85;3.63;;;;;;;;;;5039282;28;20052;-61
2023/04/28 14:51:22;;;;;;;1.65;1.50;;;;;;;;;;5034328;28;22216;-60